createdAt,value
2022-12-25T00:00:03.474Z,26.02
2022-12-25T00:02:50.146Z,27.02
2022-12-25T00:05:23.169Z,25.52
2022-12-25T00:08:10.075Z,24.85
2022-12-25T00:10:45.487Z,25.30
2022-12-25T00:13:32.065Z,24.70
2022-12-25T00:16:05.222Z,26.00
2022-12-25T00:18:53.092Z,24.27
2022-12-25T00:21:28.179Z,25.40
2022-12-25T00:24:16.075Z,26.33
2022-12-25T00:26:56.064Z,26.92
2022-12-25T00:29:43.077Z,26.33
2022-12-25T00:32:16.170Z,26.58
2022-12-25T00:35:03.185Z,26.67
2022-12-25T00:37:36.183Z,26.20
2022-12-25T00:40:23.062Z,24.25
2022-12-25T00:42:57.192Z,24.95
2022-12-25T00:45:44.117Z,24.85
2022-12-25T00:48:17.145Z,25.77
2022-12-25T00:51:06.094Z,25.38
2022-12-25T00:53:46.197Z,24.63
2022-12-25T00:56:26.090Z,25.55
2022-12-25T00:59:13.071Z,24.75
2022-12-25T01:02:27.275Z,24.58
2022-12-25T01:05:14.071Z,23.80
2022-12-25T01:07:47.241Z,23.90
2022-12-25T01:10:34.128Z,25.80
2022-12-25T01:13:08.179Z,26.33
2022-12-25T01:15:55.178Z,25.13
2022-12-25T01:18:31.207Z,25.60
2022-12-25T01:21:20.112Z,24.30
2022-12-25T01:23:54.197Z,23.77
2022-12-25T01:26:41.088Z,22.92
2022-12-25T01:29:21.089Z,24.05
2022-12-25T01:32:15.167Z,25.42
2022-12-25T01:35:09.101Z,25.20
2022-12-25T01:37:57.092Z,26.73
2022-12-25T01:40:37.120Z,24.73
2022-12-25T01:43:36.092Z,24.40
2022-12-25T01:46:09.267Z,23.23
2022-12-25T01:48:57.123Z,23.35
2022-12-25T01:51:35.232Z,23.77
2022-12-25T01:54:28.111Z,24.95
2022-12-25T01:57:06.177Z,25.42
2022-12-25T02:00:00.149Z,24.88
2022-12-25T02:02:55.190Z,24.80
2022-12-25T02:05:49.107Z,23.98
2022-12-25T02:08:43.111Z,22.83
2022-12-25T02:11:48.101Z,22.38
2022-12-25T02:14:21.215Z,23.80
2022-12-25T02:17:23.187Z,22.27
2022-12-25T02:20:36.111Z,24.67
2022-12-25T02:24:13.100Z,25.50
2022-12-25T02:27:48.131Z,23.80
2022-12-25T02:30:42.111Z,23.73
2022-12-25T02:33:48.115Z,22.92
2022-12-25T02:36:48.109Z,22.92
2022-12-25T02:40:05.118Z,22.73
2022-12-25T02:43:11.754Z,24.63
2022-12-25T02:46:31.161Z,25.60
2022-12-25T02:49:33.129Z,23.80
2022-12-25T02:52:54.150Z,23.83
2022-12-25T02:56:04.117Z,23.75
2022-12-25T02:59:07.129Z,23.75
2022-12-25T03:02:19.176Z,24.23
2022-12-25T03:05:33.124Z,24.58
2022-12-25T03:08:11.213Z,24.88
2022-12-25T03:11:29.150Z,25.10
2022-12-25T03:14:25.903Z,23.65
2022-12-25T03:17:12.149Z,23.70
2022-12-25T03:20:03.859Z,23.95
2022-12-25T03:23:15.120Z,25.08
2022-12-25T03:26:06.902Z,26.35
2022-12-25T03:28:53.143Z,23.67
2022-12-25T03:31:37.251Z,25.60
2022-12-25T03:35:15.149Z,24.50
2022-12-25T03:38:41.004Z,23.60
2022-12-25T03:42:27.155Z,22.25
2022-12-25T03:45:35.193Z,22.05
2022-12-25T03:48:48.153Z,24.10
2022-12-25T03:52:08.148Z,25.45
2022-12-25T03:55:22.088Z,26.20
2022-12-25T03:58:27.164Z,24.73
2022-12-25T04:01:32.232Z,25.10
2022-12-25T04:04:37.150Z,23.95
2022-12-25T04:07:35.151Z,21.88
2022-12-25T04:10:47.149Z,22.45
2022-12-25T04:13:52.217Z,24.58
2022-12-25T04:16:50.165Z,24.52
2022-12-25T04:20:02.156Z,22.33
2022-12-25T04:23:07.184Z,22.33
2022-12-25T04:26:05.172Z,22.50
2022-12-25T04:29:10.165Z,21.83
2022-12-25T04:32:09.158Z,23.70
2022-12-25T04:35:21.143Z,25.60
2022-12-25T04:38:08.161Z,25.60
2022-12-25T04:40:42.249Z,24.88
2022-12-25T04:43:31.170Z,24.20
2022-12-25T04:46:06.347Z,26.10
2022-12-25T04:48:53.250Z,25.70
2022-12-25T04:51:29.292Z,26.50
2022-12-25T04:54:09.179Z,27.20
2022-12-25T04:56:56.184Z,28.52
2022-12-25T04:59:50.157Z,27.67
2022-12-25T05:02:44.394Z,27.83
2022-12-25T05:05:32.170Z,27.25
2022-12-25T05:08:05.914Z,26.98
2022-12-25T05:10:52.183Z,26.38
2022-12-25T05:13:25.386Z,24.30
2022-12-25T05:16:18.273Z,25.58
2022-12-25T05:18:52.274Z,24.70
2022-12-25T05:21:39.244Z,25.15
2022-12-25T05:24:20.189Z,26.08
2022-12-25T05:27:07.173Z,24.67
2022-12-25T05:29:40.302Z,24.13
2022-12-25T05:32:27.184Z,24.60
2022-12-25T05:35:00.482Z,22.38
2022-12-25T05:37:47.191Z,23.25
2022-12-25T05:40:20.313Z,23.38
2022-12-25T05:43:07.184Z,22.70
2022-12-25T05:45:47.176Z,24.75
2022-12-25T05:48:41.205Z,23.85
2022-12-25T05:51:28.190Z,23.08
2022-12-25T05:54:01.344Z,23.90
2022-12-25T05:56:48.188Z,23.05
2022-12-25T05:59:21.301Z,23.38
2022-12-25T06:02:08.313Z,24.00
2022-12-25T06:04:41.342Z,22.30
2022-12-25T06:07:28.217Z,23.90
2022-12-25T06:10:08.204Z,22.75
2022-12-25T06:12:55.276Z,24.15
2022-12-25T06:15:28.366Z,21.85
2022-12-25T06:18:15.192Z,21.30
2022-12-25T06:20:55.202Z,22.35
2022-12-25T06:23:43.233Z,22.75
2022-12-25T06:26:20.431Z,23.20
2022-12-25T06:29:07.225Z,23.90
2022-12-25T06:31:47.221Z,22.42
2022-12-25T06:34:41.257Z,22.02
2022-12-25T06:37:28.206Z,21.42
2022-12-25T06:40:01.366Z,23.73
2022-12-25T06:42:48.212Z,21.20
2022-12-25T06:45:28.241Z,22.17
2022-12-25T06:48:15.197Z,22.92
2022-12-25T06:50:58.203Z,21.55
2022-12-25T06:53:52.232Z,23.13
2022-12-25T06:56:40.197Z,22.67
2022-12-25T06:59:23.305Z,19.40
2022-12-25T07:02:17.260Z,23.10
2022-12-25T07:05:11.198Z,23.95
2022-12-25T07:08:05.228Z,23.65
2022-12-25T07:10:52.201Z,25.55
2022-12-25T07:13:26.231Z,25.38
2022-12-25T07:16:14.246Z,24.60
2022-12-25T07:18:48.421Z,25.60
2022-12-25T07:21:35.236Z,23.48
2022-12-25T07:24:11.337Z,23.38
2022-12-25T07:27:00.235Z,23.58
2022-12-25T07:29:40.253Z,23.45
2022-12-25T07:32:34.233Z,24.63
2022-12-25T07:35:28.240Z,33.40
2022-12-25T07:38:15.237Z,29.73
2022-12-25T07:40:51.353Z,38.72
2022-12-25T07:43:38.214Z,36.75
2022-12-25T07:46:12.428Z,45.63
2022-12-25T07:48:59.230Z,55.33
2022-12-25T07:51:32.416Z,55.42
2022-12-25T07:54:19.222Z,51.83
2022-12-25T07:56:52.460Z,46.00
2022-12-25T07:59:46.248Z,46.17
2022-12-25T08:02:35.379Z,53.92
2022-12-25T08:05:08.355Z,50.50
2022-12-25T08:07:58.366Z,45.83
2022-12-25T08:10:32.346Z,44.80
2022-12-25T08:13:19.259Z,41.35
2022-12-25T08:15:52.332Z,44.38
2022-12-25T08:18:39.257Z,43.72
2022-12-25T08:21:18.390Z,42.55
2022-12-25T08:24:05.255Z,43.95
2022-12-25T08:26:38.479Z,53.78
2022-12-25T08:29:25.243Z,50.20
2022-12-25T08:32:06.247Z,41.63
2022-12-25T08:34:53.253Z,35.88
2022-12-25T08:37:26.511Z,37.63
2022-12-25T08:40:13.232Z,41.50
2022-12-25T08:42:46.385Z,48.88
2022-12-25T08:45:35.471Z,44.30
2022-12-25T08:48:08.336Z,40.58
2022-12-25T08:50:57.235Z,42.60
2022-12-25T08:53:31.384Z,44.15
2022-12-25T08:56:19.254Z,43.78
2022-12-25T08:59:01.349Z,46.75
2022-12-25T09:01:55.443Z,46.28
2022-12-25T09:04:42.272Z,47.45
2022-12-25T09:07:15.340Z,49.08
2022-12-25T09:10:02.270Z,42.85
2022-12-25T09:12:35.366Z,47.78
2022-12-25T09:15:22.249Z,45.58
2022-12-25T09:18:02.291Z,43.72
2022-12-25T09:20:56.256Z,44.25
2022-12-25T09:23:43.280Z,46.17
2022-12-25T09:26:19.397Z,47.40
2022-12-25T09:29:06.281Z,45.42
2022-12-25T09:31:39.362Z,43.13
2022-12-25T09:34:26.256Z,50.00
2022-12-25T09:36:59.375Z,47.03
2022-12-25T09:39:47.256Z,45.10
2022-12-25T09:42:28.630Z,45.10
2022-12-25T09:45:26.273Z,41.35
2022-12-25T09:48:10.286Z,41.97
2022-12-25T09:51:08.289Z,38.03
2022-12-25T09:53:57.268Z,40.47
2022-12-25T09:56:47.291Z,41.10
2022-12-25T09:59:36.309Z,37.47
2022-12-25T10:02:58.673Z,42.75
2022-12-25T10:06:04.266Z,44.47
2022-12-25T10:08:40.480Z,37.42
2022-12-25T10:11:51.285Z,34.55
2022-12-25T10:14:30.408Z,32.72
2022-12-25T10:17:47.286Z,32.13
2022-12-25T10:20:34.608Z,33.08
2022-12-25T10:23:36.296Z,35.33
2022-12-25T10:26:10.375Z,37.40
2022-12-25T10:29:22.295Z,31.20
2022-12-25T10:32:07.288Z,33.08
2022-12-25T10:34:55.349Z,32.00
2022-12-25T10:37:28.392Z,31.23
2022-12-25T10:40:32.305Z,30.02
2022-12-25T10:43:26.343Z,32.92
2022-12-25T10:46:26.321Z,29.70
2022-12-25T10:49:22.309Z,29.65
2022-12-25T10:51:56.383Z,27.45
2022-12-25T10:54:43.303Z,24.08
2022-12-25T10:57:16.471Z,29.30
2022-12-25T11:00:10.315Z,37.10
2022-12-25T11:03:04.501Z,29.23
2022-12-25T11:05:57.285Z,28.52
2022-12-25T11:08:34.708Z,34.85
2022-12-25T11:11:26.251Z,32.30
2022-12-25T11:14:03.429Z,32.92
2022-12-25T11:16:50.337Z,32.05
2022-12-25T11:19:45.310Z,33.90
2022-12-25T11:22:33.299Z,31.08
2022-12-25T11:25:20.397Z,31.83
2022-12-25T11:28:12.316Z,33.53
2022-12-25T11:30:47.444Z,32.70
2022-12-25T11:33:46.307Z,30.77
2022-12-25T11:36:35.312Z,29.17
2022-12-25T11:39:44.330Z,30.58
2022-12-25T11:42:47.309Z,33.10
2022-12-25T11:45:33.311Z,30.98
2022-12-25T11:48:33.311Z,32.75
2022-12-25T11:51:21.308Z,33.50
2022-12-25T11:53:59.416Z,33.88
2022-12-25T11:56:46.304Z,31.35
2022-12-25T11:59:37.347Z,28.75
2022-12-25T12:02:38.494Z,29.75
2022-12-25T12:05:36.352Z,30.75
2022-12-25T12:08:13.979Z,30.98
2022-12-25T12:11:22.378Z,29.90
2022-12-25T12:14:26.419Z,30.50
2022-12-25T12:17:18.305Z,32.70
2022-12-25T12:19:52.820Z,31.80
2022-12-25T12:22:39.310Z,33.88
2022-12-25T12:25:21.350Z,31.42
2022-12-25T12:28:15.335Z,31.92
2022-12-25T12:31:09.352Z,31.60
2022-12-25T12:33:50.468Z,30.42
2022-12-25T12:36:37.349Z,29.10
2022-12-25T12:39:18.348Z,32.85
2022-12-25T12:42:12.326Z,32.58
2022-12-25T12:45:02.424Z,32.67
2022-12-25T12:47:56.472Z,33.03
2022-12-25T12:50:47.349Z,32.88
2022-12-25T12:53:30.594Z,32.42
2022-12-25T12:56:35.339Z,32.03
2022-12-25T12:59:11.682Z,31.50
2022-12-25T13:02:19.635Z,27.98
2022-12-25T13:05:07.357Z,30.52
2022-12-25T13:08:04.345Z,29.42
2022-12-25T13:11:03.351Z,31.23
2022-12-25T13:13:53.392Z,29.05
2022-12-25T13:16:49.522Z,29.23
2022-12-25T13:19:36.384Z,29.58
2022-12-25T13:22:12.481Z,31.65
2022-12-25T13:25:11.418Z,29.23
2022-12-25T13:27:51.359Z,28.13
2022-12-25T13:30:38.379Z,29.25
2022-12-25T13:33:11.508Z,26.95
2022-12-25T13:35:58.359Z,26.63
2022-12-25T13:38:41.383Z,29.80
2022-12-25T13:41:57.366Z,29.58
2022-12-25T13:45:01.533Z,32.58
2022-12-25T13:47:57.390Z,31.67
2022-12-25T13:50:37.602Z,31.00
2022-12-25T13:53:25.363Z,27.85
2022-12-25T13:56:08.372Z,28.98
2022-12-25T13:58:55.403Z,28.73
2022-12-25T14:01:28.592Z,29.75
2022-12-25T14:04:21.397Z,30.13
2022-12-25T14:06:56.601Z,30.63
2022-12-25T14:09:43.381Z,29.88
2022-12-25T14:12:19.445Z,31.23
2022-12-25T14:15:07.376Z,28.98
2022-12-25T14:17:41.474Z,26.13
2022-12-25T14:20:35.365Z,24.38
2022-12-25T14:23:08.557Z,23.67
2022-12-25T14:25:55.411Z,23.75
2022-12-25T14:28:37.118Z,24.30
2022-12-25T14:31:23.435Z,25.42
2022-12-25T14:33:58.483Z,24.50
2022-12-25T14:36:45.385Z,23.95
2022-12-25T14:39:54.356Z,24.10
2022-12-25T14:42:44.491Z,23.35
2022-12-25T14:45:40.389Z,24.83
2022-12-25T14:48:33.427Z,24.50
2022-12-25T14:51:15.460Z,26.23
2022-12-25T14:54:04.448Z,25.63
2022-12-25T14:56:40.120Z,26.48
2022-12-25T14:59:38.384Z,23.83
2022-12-25T15:02:15.162Z,24.85
2022-12-25T15:05:02.386Z,25.50
2022-12-25T15:07:37.506Z,25.02
2022-12-25T15:13:27.421Z,25.52
2022-12-25T15:16:28.578Z,26.15
2022-12-25T15:19:02.626Z,27.98
2022-12-25T15:21:51.398Z,27.40
2022-12-25T15:24:25.520Z,26.45
2022-12-25T15:27:22.420Z,27.83
2022-12-25T15:30:11.317Z,28.50
2022-12-25T15:32:58.397Z,29.30
2022-12-25T15:35:33.290Z,29.45
2022-12-25T15:38:20.400Z,30.10
2022-12-25T15:40:53.549Z,30.10
2022-12-25T15:43:41.238Z,31.05
2022-12-25T15:46:22.441Z,31.35
2022-12-25T15:49:16.419Z,31.00
2022-12-25T15:52:03.405Z,30.83
2022-12-25T15:54:37.555Z,30.15
2022-12-25T15:57:29.408Z,29.80
2022-12-25T16:00:02.521Z,30.60
2022-12-25T16:02:49.531Z,30.13
2022-12-25T16:05:23.572Z,31.70
2022-12-25T16:08:10.432Z,31.63
2022-12-25T16:10:50.412Z,32.92
2022-12-25T16:13:44.459Z,31.83
2022-12-25T16:16:32.497Z,32.05
2022-12-25T16:19:06.575Z,34.15
2022-12-25T16:21:53.426Z,34.25
2022-12-25T16:24:26.553Z,33.95
2022-12-25T16:27:13.420Z,32.33
2022-12-25T16:29:53.427Z,34.47
2022-12-25T16:32:48.394Z,37.35
2022-12-25T16:35:42.468Z,37.45
2022-12-25T16:38:29.437Z,34.50
2022-12-25T16:41:13.467Z,37.85
2022-12-25T16:44:07.444Z,37.03
2022-12-25T16:46:54.477Z,32.22
2022-12-25T16:49:27.524Z,33.38
2022-12-25T16:52:14.471Z,33.50
2022-12-25T16:54:54.439Z,32.45
2022-12-25T16:57:49.468Z,33.53
2022-12-25T17:00:49.056Z,33.65
2022-12-25T17:03:44.572Z,33.65
2022-12-25T17:06:40.483Z,32.78
2022-12-25T17:09:38.830Z,36.92
2022-12-25T17:12:28.454Z,33.75
2022-12-25T17:15:08.443Z,34.15
2022-12-25T17:17:55.504Z,33.58
2022-12-25T17:20:31.588Z,35.22
2022-12-25T17:23:18.427Z,34.22
2022-12-25T17:25:58.527Z,31.95
2022-12-25T17:28:52.440Z,29.02
2022-12-25T17:31:39.525Z,34.15
2022-12-25T17:34:15.033Z,44.53
2022-12-25T17:37:01.460Z,43.78
2022-12-25T17:39:34.565Z,45.55
2022-12-25T17:42:21.468Z,44.95
2022-12-25T17:44:55.259Z,42.97
2022-12-25T17:47:43.119Z,43.90
2022-12-25T17:50:17.196Z,37.95
2022-12-25T17:53:04.896Z,35.35
2022-12-25T17:55:39.141Z,33.08
2022-12-25T17:58:25.903Z,33.63
2022-12-25T18:01:08.601Z,32.35
2022-12-25T18:04:04.621Z,35.38
2022-12-25T18:06:59.829Z,34.90
2022-12-25T18:09:47.811Z,36.45
2022-12-25T18:12:22.255Z,39.08
2022-12-25T18:15:09.486Z,40.28
2022-12-25T18:17:43.558Z,36.90
2022-12-25T18:20:35.902Z,35.90
2022-12-25T18:23:12.946Z,34.90
2022-12-25T18:25:59.560Z,33.63
2022-12-25T18:28:32.810Z,33.25
2022-12-25T18:31:25.550Z,34.92
2022-12-25T18:34:02.726Z,34.60
2022-12-25T18:36:49.498Z,37.70
2022-12-25T18:39:22.604Z,37.35
2022-12-25T18:42:28.462Z,41.38
2022-12-25T18:45:01.574Z,41.75
2022-12-25T18:47:48.457Z,38.42
2022-12-25T18:50:22.616Z,41.00
2022-12-25T18:53:10.535Z,39.80
2022-12-25T18:55:47.573Z,39.45
2022-12-25T18:58:35.486Z,39.13
2022-12-25T19:01:32.577Z,35.25
2022-12-25T19:04:26.520Z,35.10
2022-12-25T19:07:13.456Z,36.35
2022-12-25T19:09:46.581Z,35.78
2022-12-25T19:12:33.494Z,35.03
2022-12-25T19:15:06.748Z,35.58
2022-12-25T19:17:53.503Z,34.40
2022-12-25T19:20:26.616Z,34.03
2022-12-25T19:23:15.562Z,41.20
2022-12-25T19:25:49.558Z,51.28
2022-12-25T19:28:36.571Z,51.00
2022-12-25T19:31:12.979Z,44.15
2022-12-25T19:33:59.903Z,38.45
2022-12-25T19:36:33.784Z,58.50
2022-12-25T19:39:20.522Z,63.85
2022-12-25T19:42:01.523Z,64.22
2022-12-25T19:44:55.527Z,61.42
2022-12-25T19:47:42.526Z,61.50
2022-12-25T19:50:16.696Z,64.00
2022-12-25T19:53:03.483Z,59.45
2022-12-25T19:55:38.590Z,58.40
2022-12-25T19:58:26.495Z,60.10
2022-12-25T20:01:12.665Z,53.42
2022-12-25T20:03:59.541Z,50.08
2022-12-25T20:06:38.944Z,49.60
2022-12-25T20:09:21.890Z,46.47
2022-12-25T20:12:01.534Z,44.60
2022-12-25T20:14:37.728Z,45.45
2022-12-25T20:17:24.500Z,45.88
2022-12-25T20:19:57.669Z,64.47
2022-12-25T20:22:44.548Z,62.53
2022-12-25T20:25:17.645Z,57.13
2022-12-25T20:28:04.509Z,45.63
2022-12-25T20:30:37.639Z,59.25
2022-12-25T20:33:24.503Z,57.75
2022-12-25T20:36:07.520Z,61.67
2022-12-25T20:39:01.582Z,60.72
2022-12-25T20:41:48.620Z,63.10
2022-12-25T20:44:21.660Z,58.67
2022-12-25T20:47:09.565Z,53.63
2022-12-25T20:49:42.629Z,50.70
2022-12-25T20:52:29.581Z,52.63
2022-12-25T20:55:02.608Z,56.00
2022-12-25T20:57:50.519Z,67.18
2022-12-25T21:00:23.782Z,64.43
2022-12-25T21:03:10.618Z,62.63
2022-12-25T21:05:50.749Z,60.95
2022-12-25T21:08:37.625Z,61.67
2022-12-25T21:11:11.891Z,59.13
2022-12-25T21:13:58.872Z,59.95
2022-12-25T21:16:33.478Z,56.67
2022-12-25T21:19:20.587Z,61.25
2022-12-25T21:21:57.216Z,60.53
2022-12-25T21:24:43.707Z,59.58
2022-12-25T21:27:16.924Z,72.15
2022-12-25T21:30:15.387Z,88.47
2022-12-25T21:33:16.997Z,67.13
2022-12-25T21:36:22.070Z,58.33
2022-12-25T21:39:11.817Z,52.70
2022-12-25T21:41:45.754Z,51.92
2022-12-25T21:44:32.763Z,53.78
2022-12-25T21:47:12.701Z,51.90
2022-12-25T21:50:17.537Z,50.50
2022-12-25T21:52:53.688Z,50.33
2022-12-25T21:55:41.531Z,51.58
2022-12-25T21:58:17.695Z,53.47
2022-12-25T22:01:09.640Z,54.28
2022-12-25T22:04:03.621Z,48.45
2022-12-25T22:07:09.594Z,47.30
2022-12-25T22:09:50.536Z,46.90
2022-12-25T22:13:02.628Z,39.78
2022-12-25T22:16:07.636Z,37.45
2022-12-25T22:19:00.423Z,36.00
2022-12-25T22:21:47.638Z,30.35
2022-12-25T22:24:20.919Z,31.50
2022-12-25T22:27:07.544Z,27.77
2022-12-25T22:29:47.575Z,28.95
2022-12-25T22:32:42.537Z,28.60
2022-12-25T22:35:30.553Z,26.30
2022-12-25T22:38:10.542Z,24.60
2022-12-25T22:41:04.548Z,25.55
2022-12-25T22:44:16.581Z,25.73
2022-12-25T22:46:47.868Z,24.90
2022-12-25T22:49:34.646Z,24.08
2022-12-25T22:52:10.433Z,23.33
2022-12-25T22:54:57.549Z,21.52
2022-12-25T22:57:31.698Z,20.63
2022-12-25T23:00:19.536Z,21.90
2022-12-25T23:02:52.755Z,21.33
2022-12-25T23:05:39.613Z,20.33
2022-12-25T23:08:12.703Z,20.17
2022-12-25T23:11:01.653Z,19.98
2022-12-25T23:13:53.146Z,18.45
2022-12-25T23:16:39.574Z,18.58
2022-12-25T23:19:38.595Z,18.30
2022-12-25T23:22:43.601Z,19.20
2022-12-25T23:25:46.558Z,19.25
2022-12-25T23:28:58.604Z,19.27
2022-12-25T23:31:47.682Z,21.10
2022-12-25T23:34:20.662Z,20.67
2022-12-25T23:37:07.596Z,19.45
2022-12-25T23:39:40.746Z,19.65
2022-12-25T23:42:27.575Z,18.95
2022-12-25T23:45:07.608Z,19.33
2022-12-25T23:48:01.602Z,19.23
2022-12-25T23:50:55.563Z,18.85
2022-12-25T23:53:49.603Z,21.77
2022-12-25T23:56:36.640Z,21.05
2022-12-25T23:59:10.673Z,20.35
